Wetterdaten: Woche 23.03.09 - 29.03.09 (KW13)
Datum Zeit Temperatur Luftfeuchte Luftdruck Niederschlag Wind Richtung Sonnenschein Solar Taupunkt Windchill Windben
23.03.2009 00:00 2.4 C 77 % 1026.8 hPa 0.0 l/m 0.5 km/h (0 Bft) O 0.00 h 0 W/m -1.2 C 2.4 C 1.1 km/h (0 Bft)
23.03.2009 01:00 1.3 C 81 % 1026.3 hPa 0.0 l/m 0.4 km/h (0 Bft) O 0.00 h 0 W/m -1.6 C 1.3 C 0.9 km/h (0 Bft)
23.03.2009 02:00 0.6 C 84 % 1026.0 hPa 0.0 l/m 2.0 km/h (1 Bft) O-SO 0.00 h 0 W/m -1.8 C 0.2 C 3.3 km/h (1 Bft)
23.03.2009 03:00 0.6 C 85 % 1025.7 hPa 0.0 l/m 0.2 km/h (0 Bft) O-SO 0.00 h 0 W/m -1.6 C 0.6 C 0.7 km/h (0 Bft)
23.03.2009 04:00 0.2 C 87 % 1025.3 hPa 0.0 l/m 0.3 km/h (0 Bft) O-SO 0.00 h 0 W/m -1.7 C 0.2 C 0.8 km/h (0 Bft)
23.03.2009 05:00 0.0 C 88 % 1025.2 hPa 0.0 l/m 0.5 km/h (0 Bft) O-SO 0.00 h 0 W/m -1.7 C 0.0 C 1.1 km/h (0 Bft)
23.03.2009 06:00 0.1 C 89 % 1024.9 hPa 0.0 l/m 4.3 km/h (1 Bft) O-SO 0.02 h 20 W/m -1.4 C -0.7 C 6.3 km/h (2 Bft)
23.03.2009 07:00 1.0 C 87 % 1024.3 hPa 0.0 l/m 2.5 km/h (1 Bft) S-SW 0.00 h 64 W/m -0.9 C 0.8 C 5.3 km/h (1 Bft)
23.03.2009 08:00 2.5 C 82 % 1023.9 hPa 0.0 l/m 4.1 km/h (1 Bft) S-SW 0.00 h 128 W/m -0.3 C 2.0 C 7.0 km/h (2 Bft)
23.03.2009 09:00 4.3 C 76 % 1023.1 hPa 0.0 l/m 4.1 km/h (1 Bft) S 0.25 h 248 W/m 0.4 C 3.7 C 7.9 km/h (2 Bft)
23.03.2009 10:00 6.7 C 67 % 1022.1 hPa 0.0 l/m 7.0 km/h (2 Bft) SW 0.75 h 346 W/m 1.0 C 5.6 C 11.0 km/h (2 Bft)
23.03.2009 11:00 8.9 C 56 % 1020.6 hPa 0.0 l/m 13.9 km/h (3 Bft) W 1.00 h 629 W/m 0.6 C 6.7 C 21.1 km/h (4 Bft)
23.03.2009 12:00 9.6 C 56 % 1019.2 hPa 0.0 l/m 10.8 km/h (2 Bft) W 0.47 h 426 W/m 1.2 C 8.5 C 16.7 km/h (3 Bft)
23.03.2009 13:00 11.2 C 51 % 1017.5 hPa 0.0 l/m 18.2 km/h (3 Bft) W 0.88 h 514 W/m 1.5 C 11.2 C 27.3 km/h (4 Bft)
23.03.2009 14:00 11.2 C 51 % 1016.6 hPa 0.0 l/m 19.3 km/h (3 Bft) W 0.47 h 327 W/m 1.6 C 11.2 C 29.4 km/h (5 Bft)
23.03.2009 15:00 11.2 C 52 % 1015.6 hPa 0.0 l/m 18.2 km/h (3 Bft) W 0.40 h 259 W/m 1.6 C 11.2 C 28.4 km/h (4 Bft)
23.03.2009 16:00 10.4 C 55 % 1014.5 hPa 0.0 l/m 18.5 km/h (3 Bft) W 0.00 h 102 W/m 1.8 C 10.4 C 27.6 km/h (4 Bft)
23.03.2009 17:00 10.0 C 57 % 1013.5 hPa 0.0 l/m 13.1 km/h (3 Bft) W 0.00 h 49 W/m 1.7 C 9.3 C 20.2 km/h (4 Bft)
23.03.2009 18:00 9.8 C 56 % 1012.5 hPa 0.0 l/m 9.5 km/h (2 Bft) W 0.02 h 18 W/m 1.4 C 8.6 C 14.7 km/h (3 Bft)
23.03.2009 19:00 10.0 C 53 % 1011.5 hPa 0.0 l/m 14.1 km/h (3 Bft) W 0.00 h 0 W/m 0.8 C 9.1 C 21.6 km/h (4 Bft)
23.03.2009 20:00 10.2 C 50 % 1010.3 hPa 0.0 l/m 12.9 km/h (3 Bft) W-SW 0.00 h 0 W/m 0.3 C 10.1 C 20.0 km/h (4 Bft)
23.03.2009 21:00 9.9 C 51 % 1008.8 hPa 0.0 l/m 7.2 km/h (2 Bft) W-SW 0.00 h 0 W/m 0.3 C 9.4 C 11.0 km/h (2 Bft)
23.03.2009 22:00 10.7 C 50 % 1006.9 hPa 0.0 l/m 23.3 km/h (4 Bft) W 0.00 h 0 W/m 0.8 C 10.7 C 34.2 km/h (5 Bft)
23.03.2009 23:00 10.5 C 56 % 1005.6 hPa 0.2 l/m 26.2 km/h (4 Bft) W 0.00 h 0 W/m 1.9 C 9.9 C 38.8 km/h (5 Bft)
24.03.2009 00:00 7.3 C 83 % 1005.1 hPa 3.8 l/m 22.7 km/h (4 Bft) W 0.00 h 0 W/m 4.6 C 3.7 C 33.3 km/h (5 Bft)
24.03.2009 01:00 6.4 C 90 % 1004.7 hPa 2.6 l/m 19.1 km/h (3 Bft) W 0.00 h 0 W/m 4.9 C 3.0 C 28.8 km/h (5 Bft)
24.03.2009 02:00 4.2 C 90 % 1005.4 hPa 2.4 l/m 14.6 km/h (3 Bft) W 0.00 h 0 W/m 2.6 C 1.5 C 22.7 km/h (4 Bft)
24.03.2009 03:00 1.1 C 92 % 1006.2 hPa 1.0 l/m 3.1 km/h (1 Bft) O-SO 0.00 h 0 W/m -0.1 C 0.8 C 4.5 km/h (1 Bft)
24.03.2009 04:00 1.0 C 95 % 1006.6 hPa 0.4 l/m 2.6 km/h (1 Bft) SO 0.00 h 0 W/m 0.2 C 0.7 C 4.1 km/h (1 Bft)
24.03.2009 05:00 1.0 C 96 % 1006.9 hPa 0.2 l/m 1.4 km/h (1 Bft) SO 0.00 h 0 W/m 0.4 C 1.0 C 2.9 km/h (1 Bft)
24.03.2009 06:00 1.2 C 96 % 1007.6 hPa 0.0 l/m 2.5 km/h (1 Bft) SO 0.00 h 6 W/m 0.6 C 1.1 C 4.6 km/h (1 Bft)
24.03.2009 07:00 1.5 C 97 % 1008.2 hPa 0.2 l/m 3.1 km/h (1 Bft) S 0.00 h 37 W/m 1.0 C 1.0 C 5.8 km/h (2 Bft)
24.03.2009 08:00 2.4 C 96 % 1008.5 hPa 1.4 l/m 8.1 km/h (2 Bft) W 0.67 h 236 W/m 1.8 C 0.3 C 13.1 km/h (3 Bft)
24.03.2009 09:00 2.6 C 91 % 1009.3 hPa 1.0 l/m 8.8 km/h (2 Bft) W 0.25 h 171 W/m 1.3 C 0.4 C 14.0 km/h (3 Bft)
24.03.2009 10:00 4.2 C 85 % 1009.3 hPa 0.2 l/m 10.6 km/h (2 Bft) W-NW 0.62 h 406 W/m 1.8 C 1.6 C 16.1 km/h (3 Bft)
24.03.2009 11:00 4.5 C 79 % 1009.7 hPa 0.0 l/m 13.5 km/h (3 Bft) W-SW 0.53 h 431 W/m 1.1 C 1.5 C 20.7 km/h (4 Bft)
24.03.2009 12:00 5.4 C 74 % 1010.0 hPa 0.0 l/m 13.4 km/h (3 Bft) W 0.60 h 593 W/m 1.1 C 2.6 C 20.9 km/h (4 Bft)
24.03.2009 13:00 6.3 C 67 % 1010.3 hPa 0.0 l/m 17.7 km/h (3 Bft) W 0.80 h 621 W/m 0.7 C 3.0 C 26.5 km/h (4 Bft)
24.03.2009 14:00 6.7 C 56 % 1011.0 hPa 0.0 l/m 18.7 km/h (3 Bft) W-NW 0.97 h 617 W/m -1.5 C 3.4 C 27.9 km/h (4 Bft)
24.03.2009 15:00 7.0 C 54 % 1011.4 hPa 0.0 l/m 17.4 km/h (3 Bft) W 0.87 h 439 W/m -1.7 C 3.9 C 25.5 km/h (4 Bft)
24.03.2009 16:00 5.2 C 68 % 1012.0 hPa 0.0 l/m 12.6 km/h (3 Bft) W 0.03 h 86 W/m -0.4 C 2.5 C 19.5 km/h (3 Bft)
24.03.2009 17:00 4.1 C 84 % 1012.3 hPa 0.0 l/m 4.6 km/h (1 Bft) S-SW 0.15 h 76 W/m 1.6 C 3.3 C 7.4 km/h (2 Bft)
24.03.2009 18:00 3.8 C 83 % 1012.8 hPa 0.2 l/m 7.2 km/h (2 Bft) W-SW 0.03 h 11 W/m 1.2 C 2.3 C 11.4 km/h (2 Bft)
24.03.2009 19:00 3.2 C 87 % 1013.4 hPa 0.2 l/m 5.9 km/h (2 Bft) SW 0.00 h 0 W/m 1.3 C 1.8 C 9.8 km/h (2 Bft)
24.03.2009 20:00 3.0 C 90 % 1013.7 hPa 0.4 l/m 6.6 km/h (2 Bft) SW 0.00 h 0 W/m 1.5 C 1.5 C 10.8 km/h (2 Bft)
24.03.2009 21:00 2.9 C 91 % 1013.9 hPa 0.0 l/m 4.3 km/h (1 Bft) W-NW 0.00 h 0 W/m 1.5 C 2.0 C 7.6 km/h (2 Bft)
24.03.2009 22:00 3.0 C 91 % 1013.8 hPa 0.2 l/m 6.6 km/h (2 Bft) W 0.00 h 0 W/m 1.7 C 1.3 C 11.0 km/h (2 Bft)
24.03.2009 23:00 3.0 C 90 % 1014.1 hPa 0.0 l/m 13.4 km/h (3 Bft) W 0.00 h 0 W/m 1.5 C -0.4 C 20.9 km/h (4 Bft)
25.03.2009 00:00 3.2 C 88 % 1013.7 hPa 0.0 l/m 12.0 km/h (2 Bft) W 0.00 h 0 W/m 1.4 C 0.2 C 18.7 km/h (3 Bft)
25.03.2009 01:00 3.3 C 87 % 1014.0 hPa 0.0 l/m 8.7 km/h (2 Bft) W 0.00 h 0 W/m 1.4 C 1.0 C 13.6 km/h (3 Bft)
25.03.2009 02:00 2.9 C 89 % 1013.7 hPa 0.8 l/m 5.2 km/h (1 Bft) W 0.00 h 0 W/m 1.3 C 1.6 C 9.0 km/h (2 Bft)
25.03.2009 03:00 2.9 C 89 % 1013.5 hPa 0.0 l/m 12.7 km/h (3 Bft) W 0.00 h 0 W/m 1.3 C -0.4 C 19.2 km/h (3 Bft)
25.03.2009 04:00 2.8 C 85 % 1013.6 hPa 0.0 l/m 12.3 km/h (3 Bft) W 0.00 h 0 W/m 0.5 C -0.4 C 19.0 km/h (3 Bft)
25.03.2009 05:00 2.6 C 82 % 1013.5 hPa 0.0 l/m 4.7 km/h (1 Bft) W-NW 0.00 h 0 W/m -0.1 C 1.6 C 7.9 km/h (2 Bft)
25.03.2009 06:00 2.3 C 83 % 1013.1 hPa 0.0 l/m 1.8 km/h (1 Bft) S 0.00 h 17 W/m -0.3 C 2.2 C 4.0 km/h (1 Bft)
25.03.2009 07:00 2.3 C 86 % 1012.5 hPa 0.0 l/m 1.5 km/h (1 Bft) S-SW 0.00 h 49 W/m 0.2 C 2.3 C 4.0 km/h (1 Bft)
25.03.2009 08:00 2.8 C 86 % 1011.6 hPa 0.0 l/m 3.6 km/h (1 Bft) W-SW 0.00 h 72 W/m 0.7 C 2.1 C 6.8 km/h (2 Bft)
25.03.2009 09:00 2.9 C 79 % 1011.2 hPa 0.0 l/m 10.5 km/h (2 Bft) W-SW 0.00 h 73 W/m -0.3 C 0.2 C 16.1 km/h (3 Bft)
25.03.2009 10:00 2.4 C 86 % 1010.6 hPa 0.2 l/m 8.6 km/h (2 Bft) W-SW 0.00 h 110 W/m 0.3 C 0.1 C 13.6 km/h (3 Bft)
25.03.2009 11:00 2.8 C 87 % 1009.6 hPa 0.4 l/m 8.8 km/h (2 Bft) SW 0.00 h 177 W/m 0.9 C 0.5 C 14.3 km/h (3 Bft)
25.03.2009 12:00 4.0 C 84 % 1008.0 hPa 0.0 l/m 14.2 km/h (3 Bft) SW 0.15 h 309 W/m 1.5 C 0.7 C 21.7 km/h (4 Bft)
25.03.2009 13:00 4.9 C 74 % 1006.7 hPa 0.0 l/m 13.7 km/h (3 Bft) SW 0.02 h 207 W/m 0.6 C 1.9 C 21.3 km/h (4 Bft)
25.03.2009 14:00 4.4 C 76 % 1006.0 hPa 0.6 l/m 12.9 km/h (3 Bft) W-SW 0.00 h 67 W/m 0.4 C 1.4 C 19.5 km/h (3 Bft)
25.03.2009 15:00 3.5 C 85 % 1005.6 hPa 0.6 l/m 8.0 km/h (2 Bft) SW 0.00 h 40 W/m 1.3 C 1.6 C 12.8 km/h (3 Bft)
25.03.2009 16:00 3.3 C 88 % 1005.1 hPa 1.6 l/m 11.0 km/h (2 Bft) SW 0.00 h 24 W/m 1.5 C 0.5 C 17.5 km/h (3 Bft)
25.03.2009 17:00 3.0 C 90 % 1005.1 hPa 1.8 l/m 9.1 km/h (2 Bft) SW 0.00 h 13 W/m 1.6 C 0.6 C 15.1 km/h (3 Bft)
25.03.2009 18:00 2.5 C 93 % 1005.5 hPa 1.4 l/m 3.3 km/h (1 Bft) SW 0.00 h 5 W/m 1.4 C 1.7 C 5.6 km/h (1 Bft)
25.03.2009 19:00 2.7 C 94 % 1005.5 hPa 2.8 l/m 3.1 km/h (1 Bft) SW 0.00 h 0 W/m 1.9 C 2.3 C 5.8 km/h (2 Bft)
25.03.2009 20:00 2.8 C 95 % 1006.2 hPa 1.4 l/m 5.0 km/h (1 Bft) S-SW 0.00 h 0 W/m 2.2 C 1.8 C 7.8 km/h (2 Bft)
25.03.2009 21:00 3.0 C 96 % 1006.1 hPa 0.0 l/m 6.3 km/h (2 Bft) SW 0.00 h 0 W/m 2.4 C 1.4 C 9.9 km/h (2 Bft)
25.03.2009 22:00 3.3 C 96 % 1005.7 hPa 0.6 l/m 6.8 km/h (2 Bft) SW 0.00 h 0 W/m 2.7 C 1.6 C 11.2 km/h (2 Bft)
25.03.2009 23:00 3.6 C 95 % 1006.0 hPa 1.8 l/m 13.3 km/h (3 Bft) W-NW 0.00 h 0 W/m 2.8 C 0.5 C 20.8 km/h (4 Bft)
26.03.2009 00:00 3.1 C 93 % 1007.3 hPa 0.0 l/m 16.4 km/h (3 Bft) W 0.00 h 0 W/m 2.1 C -0.7 C 24.9 km/h (4 Bft)
26.03.2009 01:00 3.2 C 92 % 1008.7 hPa 0.0 l/m 14.6 km/h (3 Bft) W 0.00 h 0 W/m 2.0 C -0.4 C 22.3 km/h (4 Bft)
26.03.2009 02:00 3.4 C 89 % 1009.7 hPa 0.0 l/m 15.5 km/h (3 Bft) W 0.00 h 0 W/m 1.8 C -0.2 C 24.4 km/h (4 Bft)
26.03.2009 03:00 3.4 C 88 % 1010.4 hPa 0.0 l/m 12.8 km/h (3 Bft) W 0.00 h 0 W/m 1.6 C 0.3 C 19.4 km/h (3 Bft)
26.03.2009 04:00 3.4 C 88 % 1011.2 hPa 0.0 l/m 8.2 km/h (2 Bft) W 0.00 h 0 W/m 1.6 C 1.3 C 12.7 km/h (3 Bft)
26.03.2009 05:00 3.5 C 87 % 1011.9 hPa 0.0 l/m 7.0 km/h (2 Bft) W 0.00 h 0 W/m 1.6 C 1.8 C 10.7 km/h (2 Bft)
26.03.2009 06:00 3.6 C 87 % 1012.1 hPa 0.0 l/m 1.0 km/h (0 Bft) S 0.00 h 9 W/m 1.7 C 3.6 C 3.0 km/h (1 Bft)
26.03.2009 07:00 3.6 C 89 % 1012.6 hPa 0.0 l/m 2.3 km/h (1 Bft) S 0.00 h 40 W/m 1.9 C 3.5 C 4.2 km/h (1 Bft)
26.03.2009 08:00 4.9 C 87 % 1012.9 hPa 0.0 l/m 5.3 km/h (1 Bft) W-SW 0.47 h 224 W/m 2.9 C 3.9 C 8.8 km/h (2 Bft)
26.03.2009 09:00 5.9 C 82 % 1013.3 hPa 0.2 l/m 7.1 km/h (2 Bft) W 0.00 h 149 W/m 3.0 C 4.5 C 10.5 km/h (2 Bft)
26.03.2009 10:00 6.1 C 81 % 1013.9 hPa 0.2 l/m 6.4 km/h (2 Bft) W 0.00 h 172 W/m 3.2 C 5.0 C 9.7 km/h (2 Bft)
26.03.2009 11:00 6.7 C 83 % 1013.5 hPa 0.2 l/m 5.0 km/h (1 Bft) W-NW 0.10 h 223 W/m 3.9 C 6.0 C 8.1 km/h (2 Bft)
26.03.2009 12:00 7.3 C 83 % 1013.3 hPa 0.2 l/m 6.1 km/h (2 Bft) W-SW 0.30 h 299 W/m 4.5 C 6.3 C 9.7 km/h (2 Bft)
26.03.2009 13:00 7.7 C 81 % 1012.8 hPa 0.4 l/m 4.9 km/h (1 Bft) W-SW 0.03 h 219 W/m 4.7 C 7.1 C 7.7 km/h (2 Bft)
26.03.2009 14:00 9.0 C 73 % 1012.0 hPa 0.0 l/m 11.8 km/h (2 Bft) W 0.77 h 469 W/m 4.3 C 7.2 C 17.9 km/h (3 Bft)
26.03.2009 15:00 8.7 C 69 % 1011.4 hPa 0.0 l/m 7.8 km/h (2 Bft) W-NW 0.20 h 178 W/m 3.4 C 7.7 C 12.1 km/h (2 Bft)
26.03.2009 16:00 9.7 C 67 % 1010.5 hPa 0.2 l/m 2.4 km/h (1 Bft) W-NW 0.20 h 173 W/m 3.8 C 9.7 C 4.4 km/h (1 Bft)
26.03.2009 17:00 9.4 C 70 % 1009.6 hPa 0.0 l/m 1.9 km/h (1 Bft) W-NW 0.00 h 48 W/m 4.2 C 9.3 C 3.8 km/h (1 Bft)
26.03.2009 18:00 8.4 C 69 % 1009.7 hPa 0.2 l/m 9.3 km/h (2 Bft) W-NW 0.00 h 9 W/m 3.1 C 7.0 C 14.5 km/h (3 Bft)
26.03.2009 19:00 6.9 C 82 % 1009.6 hPa 0.4 l/m 3.4 km/h (1 Bft) W-NW 0.00 h 0 W/m 4.1 C 6.6 C 5.6 km/h (1 Bft)
26.03.2009 20:00 6.1 C 88 % 1009.7 hPa 1.6 l/m 1.4 km/h (1 Bft) W-NW 0.00 h 0 W/m 4.3 C 6.1 C 3.0 km/h (1 Bft)
26.03.2009 21:00 5.6 C 91 % 1010.1 hPa 1.8 l/m 0.7 km/h (0 Bft) N-NW 0.00 h 0 W/m 4.3 C 5.6 C 1.6 km/h (1 Bft)
26.03.2009 22:00 5.5 C 94 % 1009.9 hPa 1.2 l/m 1.6 km/h (1 Bft) SO 0.00 h 0 W/m 4.6 C 5.4 C 2.7 km/h (1 Bft)
26.03.2009 23:00 5.6 C 95 % 1009.5 hPa 1.8 l/m 1.7 km/h (1 Bft) SO 0.00 h 0 W/m 4.9 C 5.5 C 4.0 km/h (1 Bft)
27.03.2009 00:00 5.7 C 96 % 1009.2 hPa 1.0 l/m 1.8 km/h (1 Bft) SW 0.00 h 0 W/m 5.2 C 5.7 C 3.9 km/h (1 Bft)
27.03.2009 01:00 5.8 C 97 % 1008.7 hPa 0.2 l/m 0.9 km/h (0 Bft) S 0.00 h 0 W/m 5.4 C 5.8 C 2.3 km/h (1 Bft)
27.03.2009 02:00 6.0 C 97 % 1008.0 hPa 0.4 l/m 1.1 km/h (1 Bft) S-SO 0.00 h 0 W/m 5.5 C 6.0 C 2.8 km/h (1 Bft)
27.03.2009 03:00 6.1 C 97 % 1007.4 hPa 1.0 l/m 5.8 km/h (2 Bft) W 0.00 h 0 W/m 5.7 C 5.2 C 9.7 km/h (2 Bft)
27.03.2009 04:00 6.2 C 96 % 1007.0 hPa 2.2 l/m 2.1 km/h (1 Bft) W-NW 0.00 h 0 W/m 5.6 C 5.9 C 3.8 km/h (1 Bft)
27.03.2009 05:00 5.9 C 96 % 1006.7 hPa 0.6 l/m 0.3 km/h (0 Bft) NW 0.00 h 0 W/m 5.4 C 5.9 C 1.2 km/h (1 Bft)
27.03.2009 06:00 5.8 C 97 % 1006.7 hPa 1.0 l/m 0.5 km/h (0 Bft) W-NW 0.00 h 18 W/m 5.3 C 5.8 C 1.4 km/h (1 Bft)
27.03.2009 07:00 6.1 C 97 % 1006.7 hPa 0.0 l/m 0.6 km/h (0 Bft) W 0.00 h 60 W/m 5.6 C 6.0 C 1.8 km/h (1 Bft)
27.03.2009 08:00 6.6 C 97 % 1006.9 hPa 0.0 l/m 3.8 km/h (1 Bft) W 0.02 h 98 W/m 6.1 C 6.2 C 6.2 km/h (2 Bft)
27.03.2009 09:00 6.7 C 97 % 1006.9 hPa 0.2 l/m 0.2 km/h (0 Bft) W-NW 0.00 h 86 W/m 6.2 C 6.7 C 1.0 km/h (0 Bft)
27.03.2009 10:00 7.4 C 95 % 1007.0 hPa 0.2 l/m 6.8 km/h (2 Bft) W-NW 0.02 h 162 W/m 6.7 C 6.3 C 11.0 km/h (2 Bft)
27.03.2009 11:00 7.8 C 88 % 1006.7 hPa 0.2 l/m 13.1 km/h (3 Bft) W 0.00 h 205 W/m 6.0 C 5.5 C 19.5 km/h (3 Bft)
27.03.2009 12:00 9.0 C 81 % 1006.1 hPa 0.0 l/m 11.1 km/h (2 Bft) W 0.37 h 355 W/m 6.0 C 7.5 C 17.0 km/h (3 Bft)
27.03.2009 13:00 10.2 C 78 % 1005.4 hPa 0.0 l/m 10.2 km/h (2 Bft) W 0.23 h 338 W/m 6.6 C 9.6 C 15.6 km/h (3 Bft)
27.03.2009 14:00 11.1 C 70 % 1004.8 hPa 0.2 l/m 13.8 km/h (3 Bft) W 0.28 h 291 W/m 5.9 C 11.1 C 21.4 km/h (4 Bft)
27.03.2009 15:00 10.1 C 72 % 1004.6 hPa 0.0 l/m 19.2 km/h (3 Bft) W 0.38 h 278 W/m 5.3 C 9.0 C 28.4 km/h (4 Bft)
27.03.2009 16:00 9.6 C 76 % 1004.2 hPa 0.0 l/m 17.2 km/h (3 Bft) W-NW 0.72 h 265 W/m 5.5 C 7.2 C 25.8 km/h (4 Bft)
27.03.2009 17:00 9.2 C 75 % 1004.4 hPa 0.0 l/m 15.4 km/h (3 Bft) W 0.00 h 67 W/m 5.1 C 6.9 C 24.2 km/h (4 Bft)
27.03.2009 18:00 8.8 C 74 % 1004.3 hPa 0.0 l/m 9.6 km/h (2 Bft) W-NW 0.02 h 22 W/m 4.4 C 7.3 C 15.6 km/h (3 Bft)
27.03.2009 19:00 8.9 C 72 % 1004.3 hPa 0.0 l/m 7.7 km/h (2 Bft) W 0.00 h 0 W/m 4.1 C 7.8 C 12.2 km/h (2 Bft)
27.03.2009 20:00 8.8 C 72 % 1004.3 hPa 0.0 l/m 5.1 km/h (1 Bft) W-NW 0.00 h 0 W/m 4.1 C 8.3 C 8.1 km/h (2 Bft)
27.03.2009 21:00 8.8 C 73 % 1004.2 hPa 0.0 l/m 6.6 km/h (2 Bft) W-NW 0.00 h 0 W/m 4.3 C 7.9 C 10.3 km/h (2 Bft)
27.03.2009 22:00 8.7 C 75 % 1004.2 hPa 0.0 l/m 5.7 km/h (1 Bft) W-NW 0.00 h 0 W/m 4.5 C 8.0 C 8.8 km/h (2 Bft)
27.03.2009 23:00 8.5 C 76 % 1003.6 hPa 0.0 l/m 2.3 km/h (1 Bft) O 0.00 h 0 W/m 4.6 C 8.4 C 4.1 km/h (1 Bft)
28.03.2009 00:00 8.0 C 81 % 1002.9 hPa 0.0 l/m 1.8 km/h (1 Bft) O 0.00 h 0 W/m 4.9 C 7.9 C 3.2 km/h (1 Bft)
28.03.2009 01:00 7.4 C 84 % 1001.9 hPa 0.0 l/m 1.8 km/h (1 Bft) O-SO 0.00 h 0 W/m 4.8 C 7.3 C 3.5 km/h (1 Bft)
28.03.2009 02:00 7.1 C 85 % 1001.2 hPa 0.0 l/m 0.7 km/h (0 Bft) O-SO 0.00 h 0 W/m 4.8 C 7.1 C 1.9 km/h (1 Bft)
28.03.2009 03:00 6.5 C 87 % 1000.4 hPa 0.0 l/m 1.0 km/h (0 Bft) O-SO 0.00 h 0 W/m 4.5 C 6.4 C 2.1 km/h (1 Bft)
28.03.2009 04:00 6.1 C 89 % 999.9 hPa 0.0 l/m 0.8 km/h (0 Bft) O-SO 0.00 h 0 W/m 4.4 C 6.1 C 1.6 km/h (1 Bft)
28.03.2009 05:00 5.9 C 90 % 999.6 hPa 0.0 l/m 0.2 km/h (0 Bft) O-SO 0.00 h 0 W/m 4.5 C 5.9 C 0.9 km/h (0 Bft)
28.03.2009 06:00 5.7 C 92 % 999.0 hPa 0.0 l/m 0.6 km/h (0 Bft) O-SO 0.00 h 12 W/m 4.5 C 5.7 C 1.4 km/h (1 Bft)
28.03.2009 07:00 5.8 C 93 % 999.0 hPa 0.0 l/m 0.4 km/h (0 Bft) O-SO 0.00 h 30 W/m 4.7 C 5.8 C 1.0 km/h (0 Bft)
28.03.2009 08:00 6.2 C 94 % 998.9 hPa 0.0 l/m 0.3 km/h (0 Bft) O-SO 0.00 h 45 W/m 5.2 C 6.2 C 0.8 km/h (0 Bft)
28.03.2009 09:00 6.4 C 94 % 999.2 hPa 1.0 l/m 0.4 km/h (0 Bft) O-SO 0.00 h 51 W/m 5.5 C 6.4 C 1.2 km/h (1 Bft)
28.03.2009 10:00 6.4 C 95 % 999.4 hPa 2.0 l/m 0.5 km/h (0 Bft) O-SO 0.00 h 34 W/m 5.7 C 6.4 C 1.3 km/h (1 Bft)
28.03.2009 11:00 6.6 C 96 % 1000.2 hPa 2.4 l/m 1.6 km/h (1 Bft) S-SO 0.00 h 38 W/m 6.0 C 6.5 C 3.4 km/h (1 Bft)
28.03.2009 12:00 6.7 C 96 % 1001.0 hPa 1.0 l/m 11.5 km/h (2 Bft) W 0.00 h 90 W/m 6.1 C 4.6 C 17.7 km/h (3 Bft)
28.03.2009 13:00 7.0 C 90 % 1001.9 hPa 0.0 l/m 14.5 km/h (3 Bft) W 0.00 h 155 W/m 5.5 C 4.3 C 22.0 km/h (4 Bft)
28.03.2009 14:00 7.0 C 86 % 1002.4 hPa 0.2 l/m 11.6 km/h (2 Bft) W 0.00 h 91 W/m 4.9 C 4.8 C 18.5 km/h (3 Bft)
28.03.2009 15:00 6.2 C 83 % 1003.4 hPa 0.0 l/m 13.3 km/h (3 Bft) W 0.00 h 58 W/m 3.5 C 3.6 C 20.1 km/h (4 Bft)
28.03.2009 16:00 5.8 C 84 % 1004.0 hPa 0.2 l/m 5.0 km/h (1 Bft) W 0.00 h 55 W/m 3.4 C 5.1 C 8.0 km/h (2 Bft)
28.03.2009 17:00 5.8 C 86 % 1004.6 hPa 0.2 l/m 1.8 km/h (1 Bft) SW 0.00 h 24 W/m 3.6 C 5.6 C 3.5 km/h (1 Bft)
28.03.2009 18:00 5.6 C 87 % 1005.3 hPa 0.4 l/m 1.8 km/h (1 Bft) SW 0.00 h 8 W/m 3.6 C 5.4 C 3.4 km/h (1 Bft)
28.03.2009 19:00 4.9 C 88 % 1006.0 hPa 0.4 l/m 3.6 km/h (1 Bft) SW 0.00 h 0 W/m 3.2 C 4.6 C 6.4 km/h (2 Bft)
28.03.2009 20:00 4.6 C 90 % 1006.7 hPa 0.2 l/m 3.3 km/h (1 Bft) S-SW 0.00 h 0 W/m 3.2 C 4.4 C 5.8 km/h (2 Bft)
28.03.2009 21:00 4.6 C 92 % 1007.3 hPa 0.4 l/m 3.3 km/h (1 Bft) S-SO 0.00 h 0 W/m 3.4 C 4.3 C 6.6 km/h (2 Bft)
28.03.2009 22:00 4.3 C 93 % 1007.5 hPa 0.4 l/m 3.4 km/h (1 Bft) S-SO 0.00 h 0 W/m 3.2 C 3.9 C 6.1 km/h (2 Bft)
28.03.2009 23:00 4.1 C 93 % 1007.9 hPa 0.4 l/m 3.1 km/h (1 Bft) S-SO 0.00 h 0 W/m 3.0 C 3.7 C 5.8 km/h (2 Bft)
29.03.2009 00:00 3.8 C 93 % 1008.1 hPa 0.6 l/m 3.5 km/h (1 Bft) S-SO 0.00 h 0 W/m 2.8 C 3.4 C 5.7 km/h (1 Bft)
29.03.2009 01:00 3.7 C 93 % 1007.9 hPa 0.8 l/m 1.1 km/h (1 Bft) S-SO 0.00 h 0 W/m 2.7 C 3.6 C 2.3 km/h (1 Bft)
29.03.2009 03:00 3.5 C 94 % 1007.9 hPa 0.4 l/m 0.6 km/h (0 Bft) S-SO 0.00 h 0 W/m 2.6 C 3.5 C 1.6 km/h (1 Bft)
29.03.2009 04:00 3.3 C 94 % 1007.9 hPa 0.0 l/m 0.2 km/h (0 Bft) S-SO 0.00 h 0 W/m 2.5 C 3.3 C 1.0 km/h (0 Bft)
29.03.2009 05:00 3.2 C 95 % 1007.7 hPa 0.2 l/m 0.0 km/h (0 Bft) N 0.00 h 0 W/m 2.5 C 3.2 C 0.2 km/h (0 Bft)
29.03.2009 06:00 3.2 C 96 % 1008.0 hPa 0.0 l/m 0.0 km/h (0 Bft) N 0.00 h 0 W/m 2.5 C 3.2 C 0.1 km/h (0 Bft)
29.03.2009 07:00 3.2 C 96 % 1008.1 hPa 0.0 l/m 0.0 km/h (0 Bft) S-SO 0.00 h 16 W/m 2.6 C 3.2 C 0.2 km/h (0 Bft)
29.03.2009 08:00 3.4 C 97 % 1008.5 hPa 0.0 l/m 0.0 km/h (0 Bft) N 0.00 h 67 W/m 3.0 C 3.4 C 0.1 km/h (0 Bft)
29.03.2009 09:00 4.1 C 97 % 1008.5 hPa 0.0 l/m 0.6 km/h (0 Bft) S-SO 0.00 h 70 W/m 3.7 C 4.1 C 1.6 km/h (1 Bft)
29.03.2009 10:00 4.6 C 97 % 1008.4 hPa 0.0 l/m 0.8 km/h (0 Bft) N-NW 0.22 h 225 W/m 4.2 C 4.6 C 2.2 km/h (1 Bft)
29.03.2009 11:00 6.2 C 91 % 1008.2 hPa 0.0 l/m 0.6 km/h (0 Bft) O-SO 0.57 h 336 W/m 4.9 C 6.2 C 1.9 km/h (1 Bft)
29.03.2009 12:00 7.5 C 77 % 1008.1 hPa 0.0 l/m 2.0 km/h (1 Bft) O 0.00 h 312 W/m 3.8 C 7.5 C 4.4 km/h (1 Bft)
29.03.2009 13:00 7.7 C 74 % 1007.9 hPa 0.0 l/m 2.2 km/h (1 Bft) O-SO 0.12 h 324 W/m 3.3 C 7.6 C 4.4 km/h (1 Bft)
29.03.2009 14:00 8.6 C 69 % 1007.5 hPa 0.0 l/m 3.6 km/h (1 Bft) N-NW 0.00 h 241 W/m 3.2 C 8.4 C 6.4 km/h (2 Bft)
29.03.2009 15:00 8.0 C 71 % 1007.5 hPa 0.0 l/m 7.4 km/h (2 Bft) N-NW 0.00 h 134 W/m 3.0 C 6.9 C 12.5 km/h (3 Bft)
29.03.2009 16:00 7.3 C 76 % 1008.0 hPa 0.2 l/m 4.2 km/h (1 Bft) N-NO 0.00 h 125 W/m 3.3 C 6.8 C 8.9 km/h (2 Bft)
29.03.2009 17:00 7.5 C 73 % 1007.9 hPa 0.0 l/m 4.1 km/h (1 Bft) N 0.00 h 100 W/m 2.9 C 7.1 C 8.0 km/h (2 Bft)
29.03.2009 18:00 7.3 C 72 % 1008.3 hPa 0.0 l/m 1.8 km/h (1 Bft) O 0.00 h 58 W/m 2.7 C 7.3 C 4.2 km/h (1 Bft)
29.03.2009 19:00 6.8 C 76 % 1008.8 hPa 0.0 l/m 1.5 km/h (1 Bft) O-SO 0.00 h 12 W/m 2.9 C 6.8 C 3.0 km/h (1 Bft)
29.03.2009 20:00 6.3 C 82 % 1009.5 hPa 0.0 l/m 2.5 km/h (1 Bft) O-SO 0.00 h 0 W/m 3.4 C 6.2 C 5.0 km/h (1 Bft)
29.03.2009 21:00 5.7 C 84 % 1010.4 hPa 0.0 l/m 2.0 km/h (1 Bft) O-SO 0.00 h 0 W/m 3.2 C 5.6 C 4.6 km/h (1 Bft)
29.03.2009 22:00 5.2 C 85 % 1010.9 hPa 0.0 l/m 1.3 km/h (1 Bft) O 0.00 h 0 W/m 2.9 C 5.2 C 3.4 km/h (1 Bft)
29.03.2009 23:00 5.0 C 86 % 1011.3 hPa 0.0 l/m 0.2 km/h (0 Bft) N-NO 0.00 h 0 W/m 2.8 C 5.0 C 1.2 km/h (1 Bft)
Min-Datum _ 23.03.09 23.03.09 28.03.09 - 23.03.09 - - - 24.03.09 23.03.09 23.03.09
_ Min-Zeit 05:00 21:11 07:45 - 00:05 - - - 14:51 06:29 00:07
Minimum _ -0.2 C 49 % 998.9 hPa - 0.0 km/h (0 Bft) - - - -2.7 C -2.3 C 0.0 km/h (0 Bft)
Max-Datum _ 27.03.09 24.03.09 23.03.09 24.03.09 23.03.09 - 23.03.09 24.03.09 27.03.09 27.03.09 23.03.09
_ Max-Zeit 14:40 07:41 00:00 00:03 23:03 - 06:43 12:21 13:50 14:40 23:29
Maximum _ 11.7 C 99 % 1027.0 hPa 3.8 l/m 38.2 km/h
W (5 Bft)
- 0.02 h 925 W/m 7.3 C 11.7 C 57.4 km/h
W (7 Bft)
Durchschnitt _ 5.5 C 83 % 1009.4 hPa #55.4 l/m 6.6 km/h (2 Bft) W #14:56 h 167 W/m 2.7 C 4.5 C 10.6 km/h (2 Bft)
© Kaiko 2009